sensor_id;sensor_type;location;lat;lon;timestamp;pressure;altitude;pressure_sealevel;temperature;humidity
85914;BME280;76454;48.724;16.968;2024-03-25T00:00:27;98732.38;;;17.68;45.28
85914;BME280;76454;48.724;16.968;2024-03-25T00:02:52;98733.19;;;17.69;45.01
85914;BME280;76454;48.724;16.968;2024-03-25T00:05:17;98738.59;;;17.69;44.87
85914;BME280;76454;48.724;16.968;2024-03-25T00:07:50;98729.81;;;17.63;45.04
85914;BME280;76454;48.724;16.968;2024-03-25T00:10:16;98726.19;;;17.59;44.97
85914;BME280;76454;48.724;16.968;2024-03-25T00:12:41;98718.84;;;17.59;45.80
85914;BME280;76454;48.724;16.968;2024-03-25T00:15:06;98715.66;;;17.57;45.29
85914;BME280;76454;48.724;16.968;2024-03-25T00:17:32;98718.06;;;17.59;45.77
85914;BME280;76454;48.724;16.968;2024-03-25T00:19:57;98725.34;;;17.58;45.09
85914;BME280;76454;48.724;16.968;2024-03-25T00:22:23;98722.38;;;17.60;45.89
85914;BME280;76454;48.724;16.968;2024-03-25T00:24:50;98719.94;;;17.58;45.83
85914;BME280;76454;48.724;16.968;2024-03-25T00:27:16;98719.50;;;17.56;45.21
85914;BME280;76454;48.724;16.968;2024-03-25T00:29:41;98712.50;;;17.55;45.63
85914;BME280;76454;48.724;16.968;2024-03-25T00:32:07;98715.97;;;17.56;45.58
85914;BME280;76454;48.724;16.968;2024-03-25T00:34:32;98712.50;;;17.55;45.22
85914;BME280;76454;48.724;16.968;2024-03-25T00:36:58;98714.72;;;17.53;45.54
85914;BME280;76454;48.724;16.968;2024-03-25T00:39:23;98718.69;;;17.56;46.06
85914;BME280;76454;48.724;16.968;2024-03-25T00:41:48;98707.72;;;17.52;45.82
85914;BME280;76454;48.724;16.968;2024-03-25T00:44:14;98715.38;;;17.50;45.93
85914;BME280;76454;48.724;16.968;2024-03-25T00:46:39;98695.97;;;17.48;45.39
85914;BME280;76454;48.724;16.968;2024-03-25T00:49:06;98699.16;;;17.50;45.52
85914;BME280;76454;48.724;16.968;2024-03-25T00:51:31;98698.81;;;17.52;45.80
85914;BME280;76454;48.724;16.968;2024-03-25T00:53:56;98699.59;;;17.52;46.01
85914;BME280;76454;48.724;16.968;2024-03-25T00:56:22;98693.91;;;17.54;45.48
85914;BME280;76454;48.724;16.968;2024-03-25T00:58:47;98697.38;;;17.54;45.09
85914;BME280;76454;48.724;16.968;2024-03-25T01:01:12;98693.59;;;17.55;45.39
85914;BME280;76454;48.724;16.968;2024-03-25T01:03:39;98693.59;;;17.55;45.48
85914;BME280;76454;48.724;16.968;2024-03-25T01:06:04;98688.50;;;17.54;45.06
85914;BME280;76454;48.724;16.968;2024-03-25T01:08:29;98691.19;;;17.54;45.46
85914;BME280;76454;48.724;16.968;2024-03-25T01:10:54;98691.34;;;17.57;45.40
85914;BME280;76454;48.724;16.968;2024-03-25T01:13:20;98694.38;;;17.56;45.23
85914;BME280;76454;48.724;16.968;2024-03-25T01:15:45;98693.09;;;17.53;45.59
85914;BME280;76454;48.724;16.968;2024-03-25T01:18:11;98692.78;;;17.55;45.42
85914;BME280;76454;48.724;16.968;2024-03-25T01:20:36;98691.66;;;17.56;45.89
85914;BME280;76454;48.724;16.968;2024-03-25T01:23:01;98693.25;;;17.57;45.55
85914;BME280;76454;48.724;16.968;2024-03-25T01:25:26;98695.00;;;17.53;44.88
85914;BME280;76454;48.724;16.968;2024-03-25T01:27:51;98692.31;;;17.53;44.85
85914;BME280;76454;48.724;16.968;2024-03-25T01:30:17;98694.53;;;17.51;45.46
85914;BME280;76454;48.724;16.968;2024-03-25T01:32:45;98691.19;;;17.54;45.78
85914;BME280;76454;48.724;16.968;2024-03-25T01:35:13;98689.94;;;17.60;44.98
85914;BME280;76454;48.724;16.968;2024-03-25T01:37:38;98687.06;;;17.65;45.13
85914;BME280;76454;48.724;16.968;2024-03-25T01:40:03;98689.59;;;17.70;45.39
85914;BME280;76454;48.724;16.968;2024-03-25T01:42:29;98686.25;;;17.73;44.87
85914;BME280;76454;48.724;16.968;2024-03-25T01:44:54;98685.13;;;17.83;44.67
85914;BME280;76454;48.724;16.968;2024-03-25T01:47:20;98680.53;;;17.84;44.11
85914;BME280;76454;48.724;16.968;2024-03-25T01:49:45;98679.22;;;17.90;44.04
85914;BME280;76454;48.724;16.968;2024-03-25T01:52:10;98679.88;;;17.95;43.59
85914;BME280;76454;48.724;16.968;2024-03-25T01:54:35;98685.44;;;17.99;43.01
85914;BME280;76454;48.724;16.968;2024-03-25T01:57:00;98686.22;;;18.00;43.45
85914;BME280;76454;48.724;16.968;2024-03-25T01:59:26;98690.38;;;17.97;43.39
85914;BME280;76454;48.724;16.968;2024-03-25T02:01:51;98693.22;;;17.92;43.62
85914;BME280;76454;48.724;16.968;2024-03-25T02:04:18;98687.97;;;17.87;43.50
85914;BME280;76454;48.724;16.968;2024-03-25T02:06:43;98687.03;;;17.83;43.39
85914;BME280;76454;48.724;16.968;2024-03-25T02:09:09;98687.22;;;17.77;44.04
85914;BME280;76454;48.724;16.968;2024-03-25T02:11:35;98688.00;;;17.78;44.16
85914;BME280;76454;48.724;16.968;2024-03-25T02:14:00;98692.63;;;17.77;44.65
85914;BME280;76454;48.724;16.968;2024-03-25T02:16:25;98685.47;;;17.73;43.87
85914;BME280;76454;48.724;16.968;2024-03-25T02:18:51;98679.91;;;17.69;44.76
85914;BME280;76454;48.724;16.968;2024-03-25T02:21:16;98676.72;;;17.67;44.52
85914;BME280;76454;48.724;16.968;2024-03-25T02:23:42;98679.91;;;17.69;44.88
85914;BME280;76454;48.724;16.968;2024-03-25T02:26:07;98680.69;;;17.70;44.85
85914;BME280;76454;48.724;16.968;2024-03-25T02:28:32;98684.66;;;17.63;44.79
85914;BME280;76454;48.724;16.968;2024-03-25T02:30:57;98683.56;;;17.64;44.01
85914;BME280;76454;48.724;16.968;2024-03-25T02:33:23;98679.25;;;17.63;44.82
85914;BME280;76454;48.724;16.968;2024-03-25T02:35:48;98677.03;;;17.65;44.26
85914;BME280;76454;48.724;16.968;2024-03-25T02:38:13;98682.28;;;17.62;44.61
85914;BME280;76454;48.724;16.968;2024-03-25T02:40:40;98690.72;;;17.60;44.94
85914;BME280;76454;48.724;16.968;2024-03-25T02:43:05;98685.78;;;17.62;44.68
85914;BME280;76454;48.724;16.968;2024-03-25T02:45:32;98687.34;;;17.63;45.26
85914;BME280;76454;48.724;16.968;2024-03-25T02:47:57;98692.16;;;17.58;44.86
85914;BME280;76454;48.724;16.968;2024-03-25T02:50:22;98694.53;;;17.59;45.14
85914;BME280;76454;48.724;16.968;2024-03-25T02:52:48;98687.06;;;17.56;44.56
85914;BME280;76454;48.724;16.968;2024-03-25T02:55:13;98683.72;;;17.59;45.31
85914;BME280;76454;48.724;16.968;2024-03-25T02:57:38;98690.56;;;17.57;44.93
85914;BME280;76454;48.724;16.968;2024-03-25T03:00:03;98684.81;;;17.58;45.03
85914;BME280;76454;48.724;16.968;2024-03-25T03:02:29;98688.63;;;17.57;45.13
85914;BME280;76454;48.724;16.968;2024-03-25T03:04:54;98685.31;;;17.52;44.32
85914;BME280;76454;48.724;16.968;2024-03-25T03:07:19;98683.38;;;17.52;44.96
85914;BME280;76454;48.724;16.968;2024-03-25T03:09:45;98681.19;;;17.54;44.10
85914;BME280;76454;48.724;16.968;2024-03-25T03:12:10;98683.09;;;17.54;45.00
85914;BME280;76454;48.724;16.968;2024-03-25T03:14:35;98692.78;;;17.55;45.09
85914;BME280;76454;48.724;16.968;2024-03-25T03:17:01;98683.72;;;17.51;44.61
85914;BME280;76454;48.724;16.968;2024-03-25T03:19:29;98689.59;;;17.53;44.76
85914;BME280;76454;48.724;16.968;2024-03-25T03:21:55;98684.19;;;17.53;45.38
85914;BME280;76454;48.724;16.968;2024-03-25T03:24:20;98691.19;;;17.54;45.39
85914;BME280;76454;48.724;16.968;2024-03-25T03:26:45;98697.72;;;17.53;45.15
85914;BME280;76454;48.724;16.968;2024-03-25T03:29:11;98697.22;;;17.51;45.08
85914;BME280;76454;48.724;16.968;2024-03-25T03:31:36;98707.56;;;17.48;44.91
85914;BME280;76454;48.724;16.968;2024-03-25T03:34:01;98701.03;;;17.49;45.52
85914;BME280;76454;48.724;16.968;2024-03-25T03:36:27;98707.09;;;17.46;45.72
85914;BME280;76454;48.724;16.968;2024-03-25T03:38:52;98707.09;;;17.46;45.78
85914;BME280;76454;48.724;16.968;2024-03-25T03:41:17;98715.53;;;17.45;44.85
85914;BME280;76454;48.724;16.968;2024-03-25T03:43:42;98705.50;;;17.45;45.76
85914;BME280;76454;48.724;16.968;2024-03-25T03:46:07;98710.91;;;17.45;45.08
85914;BME280;76454;48.724;16.968;2024-03-25T03:48:33;98712.16;;;17.48;45.16
85914;BME280;76454;48.724;16.968;2024-03-25T03:50:58;98707.09;;;17.46;45.81
85914;BME280;76454;48.724;16.968;2024-03-25T03:53:24;98711.69;;;17.46;45.34
85914;BME280;76454;48.724;16.968;2024-03-25T03:55:55;98713.59;;;17.54;44.99
85914;BME280;76454;48.724;16.968;2024-03-25T03:58:21;98714.38;;;17.63;45.59
85914;BME280;76454;48.724;16.968;2024-03-25T04:00:47;98709.63;;;17.69;44.83
85914;BME280;76454;48.724;16.968;2024-03-25T04:03:12;98709.47;;;17.74;44.92
85914;BME280;76454;48.724;16.968;2024-03-25T04:05:37;98715.50;;;17.80;44.24
85914;BME280;76454;48.724;16.968;2024-03-25T04:08:03;98719.94;;;17.85;44.20
85914;BME280;76454;48.724;16.968;2024-03-25T04:10:28;98713.91;;;17.88;44.25
85914;BME280;76454;48.724;16.968;2024-03-25T04:12:53;98716.44;;;17.93;43.70
85914;BME280;76454;48.724;16.968;2024-03-25T04:15:19;98725.84;;;17.95;43.62
85914;BME280;76454;48.724;16.968;2024-03-25T04:17:44;98730.28;;;17.91;43.39
85914;BME280;76454;48.724;16.968;2024-03-25T04:20:10;98728.22;;;17.88;43.39
85914;BME280;76454;48.724;16.968;2024-03-25T04:22:36;98728.72;;;17.81;43.58
85914;BME280;76454;48.724;16.968;2024-03-25T04:25:01;98735.72;;;17.83;43.37
85914;BME280;76454;48.724;16.968;2024-03-25T04:27:26;98727.28;;;17.75;43.55
85914;BME280;76454;48.724;16.968;2024-03-25T04:29:52;98736.81;;;17.73;44.30
85914;BME280;76454;48.724;16.968;2024-03-25T04:32:17;98732.84;;;17.70;44.36
85914;BME280;76454;48.724;16.968;2024-03-25T04:34:42;98733.31;;;17.72;44.62
85914;BME280;76454;48.724;16.968;2024-03-25T04:37:09;98731.25;;;17.69;44.16
85914;BME280;76454;48.724;16.968;2024-03-25T04:39:34;98739.38;;;17.69;44.44
85914;BME280;76454;48.724;16.968;2024-03-25T04:42:00;98735.72;;;17.65;44.39
85914;BME280;76454;48.724;16.968;2024-03-25T04:44:25;98734.44;;;17.62;44.14
85914;BME280;76454;48.724;16.968;2024-03-25T04:46:50;98732.19;;;17.64;44.70
85914;BME280;76454;48.724;16.968;2024-03-25T04:49:15;98737.28;;;17.66;44.56
85914;BME280;76454;48.724;16.968;2024-03-25T04:51:40;98738.41;;;17.65;44.89
85914;BME280;76454;48.724;16.968;2024-03-25T04:54:06;98733.78;;;17.65;44.60
85914;BME280;76454;48.724;16.968;2024-03-25T04:56:31;98742.22;;;17.64;44.62
85914;BME280;76454;48.724;16.968;2024-03-25T04:58:56;98733.31;;;17.63;44.53
85914;BME280;76454;48.724;16.968;2024-03-25T05:01:26;98739.03;;;17.62;44.64
85914;BME280;76454;48.724;16.968;2024-03-25T05:03:51;98741.28;;;17.60;44.95
85914;BME280;76454;48.724;16.968;2024-03-25T05:06:16;98744.44;;;17.62;45.01
85914;BME280;76454;48.724;16.968;2024-03-25T05:08:41;98750.50;;;17.59;44.62
85914;BME280;76454;48.724;16.968;2024-03-25T05:11:06;98749.84;;;17.62;44.94
85914;BME280;76454;48.724;16.968;2024-03-25T05:13:32;98754.31;;;17.58;45.29
85914;BME280;76454;48.724;16.968;2024-03-25T05:15:57;98753.19;;;17.59;44.93
85914;BME280;76454;48.724;16.968;2024-03-25T05:18:22;98747.31;;;17.57;44.67
85914;BME280;76454;48.724;16.968;2024-03-25T05:20:47;98761.75;;;17.61;44.65
85914;BME280;76454;48.724;16.968;2024-03-25T05:23:12;98760.19;;;17.60;44.55
85914;BME280;76454;48.724;16.968;2024-03-25T05:25:37;98757.00;;;17.58;45.22
85914;BME280;76454;48.724;16.968;2024-03-25T05:28:03;98763.19;;;17.58;45.05
85914;BME280;76454;48.724;16.968;2024-03-25T05:30:28;98761.91;;;17.56;44.57
85914;BME280;76454;48.724;16.968;2024-03-25T05:32:54;98762.09;;;17.59;45.35
85914;BME280;76454;48.724;16.968;2024-03-25T05:35:19;98759.72;;;17.58;44.99
85914;BME280;76454;48.724;16.968;2024-03-25T05:37:46;98768.75;;;17.53;45.01
85914;BME280;76454;48.724;16.968;2024-03-25T05:40:11;98765.44;;;17.47;45.69
85914;BME280;76454;48.724;16.968;2024-03-25T05:42:37;98769.69;;;17.48;45.74
85914;BME280;76454;48.724;16.968;2024-03-25T05:45:02;98771.78;;;17.52;44.83
85914;BME280;76454;48.724;16.968;2024-03-25T05:47:27;98771.78;;;17.52;44.87
85914;BME280;76454;48.724;16.968;2024-03-25T05:49:53;98775.75;;;17.54;45.26
85914;BME280;76454;48.724;16.968;2024-03-25T05:52:18;98772.91;;;17.51;45.19
85914;BME280;76454;48.724;16.968;2024-03-25T05:54:43;98779.88;;;17.52;45.19
85914;BME280;76454;48.724;16.968;2024-03-25T05:57:08;98776.41;;;17.51;45.42
85914;BME280;76454;48.724;16.968;2024-03-25T05:59:33;98786.09;;;17.52;45.58
85914;BME280;76454;48.724;16.968;2024-03-25T06:01:59;98786.41;;;17.59;45.15
85914;BME280;76454;48.724;16.968;2024-03-25T06:04:24;98797.22;;;17.68;45.18
85914;BME280;76454;48.724;16.968;2024-03-25T06:06:49;98800.09;;;17.72;44.54
85914;BME280;76454;48.724;16.968;2024-03-25T06:09:14;98796.78;;;17.75;44.68
85914;BME280;76454;48.724;16.968;2024-03-25T06:11:40;98798.19;;;17.81;44.44
85914;BME280;76454;48.724;16.968;2024-03-25T06:14:05;98806.47;;;17.85;44.35
85914;BME280;76454;48.724;16.968;2024-03-25T06:16:30;98800.44;;;17.88;43.57
85914;BME280;76454;48.724;16.968;2024-03-25T06:18:55;98800.59;;;17.91;43.49
85914;BME280;76454;48.724;16.968;2024-03-25T06:21:20;98806.31;;;17.90;42.59
85914;BME280;76454;48.724;16.968;2024-03-25T06:23:47;98802.66;;;17.86;43.68
85914;BME280;76454;48.724;16.968;2024-03-25T06:26:12;98807.13;;;17.81;43.61
85914;BME280;76454;48.724;16.968;2024-03-25T06:28:37;98817.59;;;17.74;43.86
85914;BME280;76454;48.724;16.968;2024-03-25T06:31:02;98822.38;;;17.77;43.88
85914;BME280;76454;48.724;16.968;2024-03-25T06:33:46;98819.97;;;17.76;44.65
85914;BME280;76454;48.724;16.968;2024-03-25T06:36:30;98820.13;;;17.71;44.42
85914;BME280;76454;48.724;16.968;2024-03-25T06:38:55;98831.88;;;17.66;45.10
85914;BME280;76454;48.724;16.968;2024-03-25T06:41:21;98820.78;;;17.68;44.97
85914;BME280;76454;48.724;16.968;2024-03-25T06:43:46;98832.22;;;17.64;44.59
85914;BME280;76454;48.724;16.968;2024-03-25T06:46:11;98828.06;;;17.58;44.90
85914;BME280;76454;48.724;16.968;2024-03-25T06:48:36;98833.63;;;17.53;44.91
85914;BME280;76454;48.724;16.968;2024-03-25T06:51:02;98838.69;;;17.55;44.48
85914;BME280;76454;48.724;16.968;2024-03-25T06:53:28;98843.78;;;17.47;44.77
85914;BME280;76454;48.724;16.968;2024-03-25T06:55:57;98845.25;;;17.54;44.86
85914;BME280;76454;48.724;16.968;2024-03-25T06:58:23;98852.22;;;17.55;45.13
85914;BME280;76454;48.724;16.968;2024-03-25T07:00:48;98854.13;;;17.54;44.74
85914;BME280;76454;48.724;16.968;2024-03-25T07:03:17;98850.16;;;17.52;45.13
85914;BME280;76454;48.724;16.968;2024-03-25T07:05:45;98854.78;;;17.51;44.56
85914;BME280;76454;48.724;16.968;2024-03-25T07:08:11;98868.44;;;17.55;44.76
85914;BME280;76454;48.724;16.968;2024-03-25T07:10:36;98858.59;;;17.50;44.76
85914;BME280;76454;48.724;16.968;2024-03-25T07:13:02;98852.06;;;17.51;44.70
85914;BME280;76454;48.724;16.968;2024-03-25T07:15:27;98853.47;;;17.48;44.86
85914;BME280;76454;48.724;16.968;2024-03-25T07:17:52;98856.16;;;17.48;45.08
85914;BME280;76454;48.724;16.968;2024-03-25T07:20:17;98850.47;;;17.50;45.12
85914;BME280;76454;48.724;16.968;2024-03-25T07:22:44;98846.97;;;17.49;44.79
85914;BME280;76454;48.724;16.968;2024-03-25T07:25:09;98857.59;;;17.46;45.12
85914;BME280;76454;48.724;16.968;2024-03-25T07:27:34;98856.63;;;17.42;45.23
85914;BME280;76454;48.724;16.968;2024-03-25T07:30:00;98866.34;;;17.43;44.49
85914;BME280;76454;48.724;16.968;2024-03-25T07:32:25;98860.63;;;17.44;44.60
85914;BME280;76454;48.724;16.968;2024-03-25T07:34:50;98859.50;;;17.45;45.31
85914;BME280;76454;48.724;16.968;2024-03-25T07:37:15;98876.84;;;17.44;44.91
85914;BME280;76454;48.724;16.968;2024-03-25T07:39:41;98878.41;;;17.37;45.22
85914;BME280;76454;48.724;16.968;2024-03-25T07:42:07;98876.31;;;17.33;45.54
85914;BME280;76454;48.724;16.968;2024-03-25T07:44:32;98873.94;;;17.32;45.51
85914;BME280;76454;48.724;16.968;2024-03-25T07:46:57;98875.03;;;17.31;45.32
85914;BME280;76454;48.724;16.968;2024-03-25T07:49:22;98872.66;;;17.29;45.53
85914;BME280;76454;48.724;16.968;2024-03-25T07:51:47;98881.38;;;17.26;45.10
85914;BME280;76454;48.724;16.968;2024-03-25T07:54:13;98891.53;;;17.21;45.10
85914;BME280;76454;48.724;16.968;2024-03-25T07:56:41;98884.34;;;17.16;45.40
85914;BME280;76454;48.724;16.968;2024-03-25T07:59:06;98894.38;;;17.15;45.19
85914;BME280;76454;48.724;16.968;2024-03-25T08:01:31;98892.16;;;17.18;45.67
85914;BME280;76454;48.724;16.968;2024-03-25T08:03:57;98887.53;;;17.18;45.16
85914;BME280;76454;48.724;16.968;2024-03-25T08:06:22;98891.78;;;17.10;44.60
85914;BME280;76454;48.724;16.968;2024-03-25T08:08:47;98891.31;;;17.08;45.11
85914;BME280;76454;48.724;16.968;2024-03-25T08:11:12;98893.88;;;17.13;45.58
85914;BME280;76454;48.724;16.968;2024-03-25T08:13:37;98896.56;;;17.13;45.72
85914;BME280;76454;48.724;16.968;2024-03-25T08:16:03;98897.06;;;17.15;45.65
85914;BME280;76454;48.724;16.968;2024-03-25T08:18:28;98911.66;;;17.14;45.56
85914;BME280;76454;48.724;16.968;2024-03-25T08:20:53;98913.69;;;17.00;45.13
85914;BME280;76454;48.724;16.968;2024-03-25T08:23:19;98896.34;;;17.01;45.77
85914;BME280;76454;48.724;16.968;2024-03-25T08:25:44;98890.66;;;17.03;45.62
85914;BME280;76454;48.724;16.968;2024-03-25T08:28:09;98893.81;;;17.05;45.72
85914;BME280;76454;48.724;16.968;2024-03-25T08:30:34;98882.88;;;17.10;45.70
85914;BME280;76454;48.724;16.968;2024-03-25T08:33:01;98895.78;;;17.13;45.59
85914;BME280;76454;48.724;16.968;2024-03-25T08:35:26;98897.75;;;17.21;45.43
85914;BME280;76454;48.724;16.968;2024-03-25T08:37:51;98905.38;;;17.28;44.97
85914;BME280;76454;48.724;16.968;2024-03-25T08:40:16;98904.47;;;17.32;44.61
85914;BME280;76454;48.724;16.968;2024-03-25T08:42:41;98902.06;;;17.40;44.29
85914;BME280;76454;48.724;16.968;2024-03-25T08:45:07;98904.53;;;17.50;44.22
85914;BME280;76454;48.724;16.968;2024-03-25T08:47:32;98904.56;;;17.59;43.47
85914;BME280;76454;48.724;16.968;2024-03-25T08:49:57;98904.88;;;17.66;43.43
85914;BME280;76454;48.724;16.968;2024-03-25T08:52:22;98907.44;;;17.71;42.94
85914;BME280;76454;48.724;16.968;2024-03-25T08:54:47;98904.25;;;17.69;43.21
85914;BME280;76454;48.724;16.968;2024-03-25T08:57:13;98911.88;;;17.67;43.29
85914;BME280;76454;48.724;16.968;2024-03-25T08:59:38;98907.56;;;17.66;43.39
85914;BME280;76454;48.724;16.968;2024-03-25T09:02:04;98912.84;;;17.62;43.49
85914;BME280;76454;48.724;16.968;2024-03-25T09:04:29;98901.84;;;17.59;43.55
85914;BME280;76454;48.724;16.968;2024-03-25T09:06:54;98908.03;;;17.59;43.97
85914;BME280;76454;48.724;16.968;2024-03-25T09:09:19;98906.25;;;17.55;44.28
85914;BME280;76454;48.724;16.968;2024-03-25T09:12:03;98908.50;;;17.53;44.17
85914;BME280;76454;48.724;16.968;2024-03-25T09:14:28;98900.66;;;17.42;44.38
85914;BME280;76454;48.724;16.968;2024-03-25T09:16:54;98912.75;;;17.36;43.90
85914;BME280;76454;48.724;16.968;2024-03-25T09:19:19;98896.81;;;17.35;44.61
85914;BME280;76454;48.724;16.968;2024-03-25T09:21:44;98894.28;;;17.38;44.86
85914;BME280;76454;48.724;16.968;2024-03-25T09:24:09;98901.75;;;17.32;44.01
85914;BME280;76454;48.724;16.968;2024-03-25T09:26:34;98891.88;;;17.28;44.31
85914;BME280;76454;48.724;16.968;2024-03-25T09:28:59;98880.75;;;17.29;44.70
85914;BME280;76454;48.724;16.968;2024-03-25T09:31:25;98891.09;;;17.27;44.60
85914;BME280;76454;48.724;16.968;2024-03-25T09:33:50;98897.41;;;17.23;44.73
85914;BME280;76454;48.724;16.968;2024-03-25T09:36:16;98898.34;;;17.18;44.16
85914;BME280;76454;48.724;16.968;2024-03-25T09:38:41;98894.38;;;17.15;44.41
85914;BME280;76454;48.724;16.968;2024-03-25T09:41:08;98896.31;;;17.24;44.83
85914;BME280;76454;48.724;16.968;2024-03-25T09:43:39;98893.44;;;17.20;44.21
85914;BME280;76454;48.724;16.968;2024-03-25T09:46:07;98894.56;;;17.28;44.56
85914;BME280;76454;48.724;16.968;2024-03-25T09:48:32;98899.84;;;17.33;44.58
85914;BME280;76454;48.724;16.968;2024-03-25T09:50:59;98907.75;;;17.29;44.69
85914;BME280;76454;48.724;16.968;2024-03-25T09:53:24;98893.91;;;17.22;45.17
85914;BME280;76454;48.724;16.968;2024-03-25T09:55:49;98892.94;;;17.18;45.44
85914;BME280;76454;48.724;16.968;2024-03-25T09:58:15;98909.78;;;17.15;44.94
85914;BME280;76454;48.724;16.968;2024-03-25T10:00:40;98908.38;;;17.18;45.08
85914;BME280;76454;48.724;16.968;2024-03-25T10:03:05;98932.00;;;17.12;45.16
85914;BME280;76454;48.724;16.968;2024-03-25T10:05:31;98945.91;;;16.96;44.54
85914;BME280;76454;48.724;16.968;2024-03-25T10:07:56;98963.16;;;16.73;44.75
85914;BME280;76454;48.724;16.968;2024-03-25T10:10:22;98948.78;;;16.63;44.67
85914;BME280;76454;48.724;16.968;2024-03-25T10:12:47;98947.19;;;16.62;43.78
85914;BME280;76454;48.724;16.968;2024-03-25T10:15:18;98943.66;;;16.76;43.65
85914;BME280;76454;48.724;16.968;2024-03-25T10:17:44;98942.88;;;16.75;43.24
85914;BME280;76454;48.724;16.968;2024-03-25T10:20:15;98944.81;;;16.83;43.75
85914;BME280;76454;48.724;16.968;2024-03-25T10:22:41;98921.72;;;16.91;44.03
85914;BME280;76454;48.724;16.968;2024-03-25T10:25:06;98920.00;;;16.95;43.75
85914;BME280;76454;48.724;16.968;2024-03-25T10:27:33;98918.56;;;16.98;43.82
85914;BME280;76454;48.724;16.968;2024-03-25T10:29:58;98915.25;;;17.01;44.12
85914;BME280;76454;48.724;16.968;2024-03-25T10:32:23;98909.56;;;17.03;44.60
85914;BME280;76454;48.724;16.968;2024-03-25T10:34:53;98916.09;;;17.10;44.21
85914;BME280;76454;48.724;16.968;2024-03-25T10:37:18;98910.72;;;17.10;43.80
85914;BME280;76454;48.724;16.968;2024-03-25T10:39:49;98914.19;;;17.11;43.71
85914;BME280;76454;48.724;16.968;2024-03-25T10:42:17;98915.00;;;17.11;44.07
85914;BME280;76454;48.724;16.968;2024-03-25T10:44:43;98914.38;;;17.14;44.35
85914;BME280;76454;48.724;16.968;2024-03-25T10:47:08;98914.06;;;17.16;44.13
85914;BME280;76454;48.724;16.968;2024-03-25T10:49:49;98921.38;;;17.15;43.69
85914;BME280;76454;48.724;16.968;2024-03-25T10:52:14;98915.28;;;17.10;43.33
85914;BME280;76454;48.724;16.968;2024-03-25T10:54:40;98920.81;;;17.05;43.58
85914;BME280;76454;48.724;16.968;2024-03-25T10:57:06;98928.28;;;16.99;43.85
85914;BME280;76454;48.724;16.968;2024-03-25T10:59:32;98919.53;;;17.02;43.61
85914;BME280;76454;48.724;16.968;2024-03-25T11:02:02;98923.25;;;17.06;44.03
85914;BME280;76454;48.724;16.968;2024-03-25T11:04:28;98923.41;;;17.10;43.54
85914;BME280;76454;48.724;16.968;2024-03-25T11:06:53;98927.41;;;17.12;44.08
85914;BME280;76454;48.724;16.968;2024-03-25T11:09:25;98932.66;;;17.18;44.20
85914;BME280;76454;48.724;16.968;2024-03-25T11:11:53;98920.91;;;17.22;43.80
85914;BME280;76454;48.724;16.968;2024-03-25T11:14:18;98928.56;;;17.20;43.93
85914;BME280;76454;48.724;16.968;2024-03-25T11:16:50;98936.28;;;17.13;43.30
85914;BME280;76454;48.724;16.968;2024-03-25T11:19:17;98937.66;;;17.02;43.44
85914;BME280;76454;48.724;16.968;2024-03-25T11:21:42;98938.41;;;16.93;43.70
85914;BME280;76454;48.724;16.968;2024-03-25T11:24:08;98941.47;;;17.00;44.34
85914;BME280;76454;48.724;16.968;2024-03-25T11:26:34;98951.66;;;17.04;43.90
85914;BME280;76454;48.724;16.968;2024-03-25T11:29:01;98949.63;;;17.09;44.39
85914;BME280;76454;48.724;16.968;2024-03-25T11:31:26;98950.44;;;17.19;44.08
85914;BME280;76454;48.724;16.968;2024-03-25T11:33:52;98945.53;;;17.21;43.84
85914;BME280;76454;48.724;16.968;2024-03-25T11:36:17;98933.69;;;17.30;44.08
85914;BME280;76454;48.724;16.968;2024-03-25T11:38:57;98932.13;;;17.38;43.63
85914;BME280;76454;48.724;16.968;2024-03-25T11:41:22;98927.06;;;17.45;43.19
85914;BME280;76454;48.724;16.968;2024-03-25T11:43:47;98923.91;;;17.52;42.80
85914;BME280;76454;48.724;16.968;2024-03-25T11:46:16;98919.16;;;17.58;42.57
85914;BME280;76454;48.724;16.968;2024-03-25T11:48:41;98910.59;;;17.64;42.62
85914;BME280;76454;48.724;16.968;2024-03-25T11:51:07;98910.63;;;17.73;42.07
85914;BME280;76454;48.724;16.968;2024-03-25T11:53:32;98910.47;;;17.78;42.17
85914;BME280;76454;48.724;16.968;2024-03-25T11:55:57;98913.03;;;17.84;42.24
85914;BME280;76454;48.724;16.968;2024-03-25T11:58:24;98918.28;;;17.80;41.99
85914;BME280;76454;48.724;16.968;2024-03-25T12:00:49;98906.03;;;17.74;42.02
85914;BME280;76454;48.724;16.968;2024-03-25T12:03:15;98906.00;;;17.65;42.48
85914;BME280;76454;48.724;16.968;2024-03-25T12:05:40;98902.47;;;17.64;43.37
85914;BME280;76454;48.724;16.968;2024-03-25T12:08:08;98904.09;;;17.65;43.58
85914;BME280;76454;48.724;16.968;2024-03-25T12:10:35;98907.44;;;17.71;44.55
85914;BME280;76454;48.724;16.968;2024-03-25T12:13:19;98904.13;;;17.83;44.88
85914;BME280;76454;48.724;16.968;2024-03-25T12:15:45;98897.13;;;17.82;44.55
85914;BME280;76454;48.724;16.968;2024-03-25T12:18:10;98896.81;;;17.84;43.87
85914;BME280;76454;48.724;16.968;2024-03-25T12:20:35;98903.50;;;17.86;44.46
85914;BME280;76454;48.724;16.968;2024-03-25T12:23:01;98901.09;;;17.85;44.04
85914;BME280;76454;48.724;16.968;2024-03-25T12:25:26;98888.38;;;17.76;43.89
85914;BME280;76454;48.724;16.968;2024-03-25T12:27:52;98891.34;;;17.66;44.26
85914;BME280;76454;48.724;16.968;2024-03-25T12:30:19;98894.84;;;17.58;43.92
85914;BME280;76454;48.724;16.968;2024-03-25T12:32:44;98898.97;;;17.55;44.27
85914;BME280;76454;48.724;16.968;2024-03-25T12:35:14;98902.47;;;17.56;44.31
85914;BME280;76454;48.724;16.968;2024-03-25T12:37:41;98896.44;;;17.59;44.45
85914;BME280;76454;48.724;16.968;2024-03-25T12:40:06;98891.66;;;17.56;44.39
85914;BME280;76454;48.724;16.968;2024-03-25T12:42:33;98885.91;;;17.57;44.30